Terminal Aerodrome Forecast
Issued by NWS

Home | Current Version | Previous Version | Text Only | Print | Product List | Glossary On
Versions: 1 2 3 4 5 6 7 8 9 10 11 12 13 14 15
000
FTUS46 KPDT 031733
TAFALW
TAF
KALW 031733Z 0318/0418 22012G22KT P6SM BKN060 BKN250
     FM032000 22016G26KT P6SM SCT060 SCT250
     FM040300 22012G22KT P6SM VCSH BKN050 OVC100
     FM040800 20012KT P6SM -RA BKN030 OVC050=

USA.gov is the U.S. government's official web portal to all federal, state and local government web resources and services.